Time;durP1;ratioP1;P1;durP2;ratioP2;P2;SDS_P1;SDS_P2;PMS_P1;PMS_P2;Temp;Humidity;BMP_temperature;BMP_pressure;BME280_temperature;BME280_humidity;BME280_pressure;Samples;Min_cycle;Max_cycle;Signal;HPM_P1;HPM_P2
2023/01/26 00:02:16;;;;;;;33.60;22.20;;;;;;;-3.39;82.74;101033.90;105735;1256;75109;-78
2023/01/26 00:04:44;;;;;;;32.00;21.90;;;;;;;-3.42;82.78;101037.97;105932;1254;70109;-78
2023/01/26 00:07:12;;;;;;;32.10;20.70;;;;;;;-3.44;82.86;101037.88;105758;1252;72871;-78
2023/01/26 00:09:41;;;;;;;33.60;20.50;;;;;;;-3.38;82.73;101039.75;106339;1254;60495;-78
2023/01/26 00:12:09;;;;;;;31.10;19.40;;;;;;;-3.24;82.46;101030.67;108117;1254;59696;-78
2023/01/26 00:14:49;;;;;;;31.80;19.60;;;;;;;-3.23;82.31;101028.05;106539;1254;74794;-79
2023/01/26 00:17:24;;;;;;;29.60;20.80;;;;;;;-3.26;82.60;101023.96;105538;1254;70203;-78
2023/01/26 00:19:54;;;;;;;30.00;20.60;;;;;;;-3.25;82.62;101021.54;105916;1254;73004;-79
2023/01/26 00:22:23;;;;;;;33.10;21.30;;;;;;;-3.25;82.52;101018.90;105898;1254;60555;-78
2023/01/26 00:24:54;;;;;;;30.90;19.20;;;;;;;-3.26;82.46;101013.05;105869;1252;60456;-79
2023/01/26 00:27:22;;;;;;;31.00;18.70;;;;;;;-3.18;82.06;101013.35;105923;1256;73420;-78
2023/01/26 00:29:50;;;;;;;24.50;17.80;;;;;;;-3.13;81.76;101011.08;105609;1254;69419;-78
2023/01/26 00:32:20;;;;;;;31.40;20.00;;;;;;;-3.18;81.90;101006.58;105687;1256;71827;-77
2023/01/26 00:34:48;;;;;;;31.80;19.10;;;;;;;-3.23;82.16;101012.98;105600;1257;60552;-77
2023/01/26 00:37:17;;;;;;;31.60;20.40;;;;;;;-3.30;81.96;101008.49;105680;1258;61517;-77
2023/01/26 00:39:45;;;;;;;30.70;19.90;;;;;;;-3.36;82.13;101004.55;105713;1259;72780;-78
2023/01/26 00:42:14;;;;;;;30.10;17.60;;;;;;;-3.37;82.34;101001.79;106192;1254;69443;-78
2023/01/26 00:44:42;;;;;;;27.90;18.00;;;;;;;-3.26;82.18;101003.52;106085;1254;72876;-78
2023/01/26 00:47:11;;;;;;;31.60;19.00;;;;;;;-3.19;81.85;101001.21;107222;1254;60659;-80
2023/01/26 00:49:40;;;;;;;29.10;17.30;;;;;;;-3.23;81.87;101001.70;107916;1253;60584;-78
2023/01/26 00:52:08;;;;;;;30.70;19.10;;;;;;;-3.28;81.78;100998.59;106592;1254;71394;-77
2023/01/26 00:54:36;;;;;;;31.90;17.90;;;;;;;-3.36;81.95;100999.34;106278;1257;68041;-79
2023/01/26 00:57:04;;;;;;;33.10;18.70;;;;;;;-3.40;82.11;100990.81;107203;1254;71377;-79
2023/01/26 00:59:33;;;;;;;32.50;20.50;;;;;;;-3.30;82.11;100990.31;106296;1254;61674;-79
2023/01/26 01:02:01;;;;;;;36.60;22.80;;;;;;;-3.23;82.04;100990.25;106250;1253;60539;-79
2023/01/26 01:04:30;;;;;;;33.00;20.10;;;;;;;-3.21;82.23;100987.45;106218;1253;73077;-79
2023/01/26 01:07:00;;;;;;;35.90;22.50;;;;;;;-3.23;82.22;100984.37;105656;1254;70577;-79
2023/01/26 01:09:28;;;;;;;36.90;21.60;;;;;;;-3.25;82.42;100986.70;105531;1260;72891;-79
2023/01/26 01:11:56;;;;;;;38.00;23.00;;;;;;;-3.25;82.44;100984.98;105837;1254;60593;-78
2023/01/26 01:14:24;;;;;;;34.50;21.60;;;;;;;-3.24;82.53;100981.62;105508;1254;61436;-78
2023/01/26 01:16:52;;;;;;;33.60;21.60;;;;;;;-3.11;82.22;100977.41;105590;1254;73732;-77
2023/01/26 01:19:20;;;;;;;35.50;21.00;;;;;;;-3.02;82.02;100973.10;105636;1254;70468;-77
2023/01/26 01:21:48;;;;;;;33.40;21.40;;;;;;;-3.03;81.97;100977.13;105518;1254;71666;-76
2023/01/26 01:24:17;;;;;;;35.20;20.60;;;;;;;-3.05;82.02;100974.07;105670;1254;60545;-77
2023/01/26 01:26:45;;;;;;;35.80;22.40;;;;;;;-3.07;82.02;100963.39;106311;1253;60444;-74
2023/01/26 01:29:14;;;;;;;41.10;24.30;;;;;;;-3.12;82.07;100955.07;107448;1254;75140;-78
2023/01/26 01:31:43;;;;;;;43.30;24.20;;;;;;;-3.13;82.21;100952.15;107284;1253;71257;-77
2023/01/26 01:34:11;;;;;;;39.70;23.50;;;;;;;-3.12;82.27;100955.05;105764;1254;71934;-78
2023/01/26 01:36:40;;;;;;;40.50;24.40;;;;;;;-3.00;81.95;100952.77;105897;1254;60462;-75
2023/01/26 01:39:08;;;;;;;40.80;24.30;;;;;;;-2.87;81.87;100945.91;106749;1254;61242;-76
2023/01/26 01:41:36;;;;;;;36.40;23.20;;;;;;;-2.86;81.80;100946.56;106565;1254;74080;-77
2023/01/26 01:44:16;;;;;;;41.90;26.20;;;;;;;-2.89;81.59;100942.51;106660;1254;69328;-77
2023/01/26 01:46:48;;;;;;;43.20;23.90;;;;;;;-2.94;81.71;100941.30;106529;1252;70702;-75
2023/01/26 01:49:32;;;;;;;43.80;26.40;;;;;;;-3.01;81.59;100940.64;107087;1256;60469;-76
2023/01/26 01:52:17;;;;;;;44.60;25.00;;;;;;;-3.05;81.73;100936.63;107659;1253;60054;-76
2023/01/26 01:54:47;;;;;;;40.80;25.10;;;;;;;-2.94;81.79;100927.75;108618;1253;71835;-77
2023/01/26 01:57:27;;;;;;;43.10;25.50;;;;;;;-2.85;81.72;100926.27;107757;1254;69509;-77
2023/01/26 02:00:02;;;;;;;39.50;25.50;;;;;;;-2.84;81.65;100923.11;106137;1254;72927;-76
2023/01/26 02:02:40;;;;;;;43.60;26.30;;;;;;;-2.87;81.70;100920.45;105736;1254;60514;-77
2023/01/26 02:05:42;;;;;;;41.20;26.30;;;;;;;-2.86;81.79;100915.70;105968;1254;59327;-77
2023/01/26 02:08:12;;;;;;;42.70;25.50;;;;;;;-2.86;81.47;100916.05;105068;1265;74886;-77
2023/01/26 02:10:42;;;;;;;44.70;25.20;;;;;;;-2.74;81.47;100915.45;105676;1259;70133;-78
2023/01/26 02:13:10;;;;;;;45.60;25.90;;;;;;;-2.67;81.33;100912.25;105698;1254;72650;-77
2023/01/26 02:15:42;;;;;;;52.40;27.50;;;;;;;-2.69;81.27;100908.89;105647;1254;60635;-76
2023/01/26 02:18:10;;;;;;;49.60;28.10;;;;;;;-2.73;81.39;100900.34;105552;1259;60476;-77
2023/01/26 02:20:41;;;;;;;43.80;26.70;;;;;;;-2.74;81.41;100901.92;105610;1258;72907;-76
2023/01/26 02:23:12;;;;;;;46.00;27.90;;;;;;;-2.77;81.33;100905.34;105677;1256;71412;-76
2023/01/26 02:25:53;;;;;;;43.10;27.90;;;;;;;-2.80;81.40;100899.70;105774;1254;72189;-77
2023/01/26 02:28:24;;;;;;;44.70;25.10;;;;;;;-2.80;81.12;100891.05;105736;1254;61592;-77
2023/01/26 02:30:53;;;;;;;43.20;26.40;;;;;;;-2.69;80.99;100889.44;105730;1256;60456;-76
2023/01/26 02:33:24;;;;;;;43.20;25.10;;;;;;;-2.58;80.76;100884.54;105748;1258;74826;-76
2023/01/26 02:36:01;;;;;;;43.90;25.80;;;;;;;-2.57;80.70;100887.61;105904;1257;70317;-77
2023/01/26 02:38:37;;;;;;;43.60;26.10;;;;;;;-2.60;80.70;100884.77;105696;1253;73797;-77
2023/01/26 02:41:11;;;;;;;40.40;24.30;;;;;;;-2.63;80.88;100875.69;105731;1256;60553;-76
2023/01/26 02:43:42;;;;;;;42.00;24.40;;;;;;;-2.64;80.60;100875.59;105734;1254;60453;-78
2023/01/26 02:46:10;;;;;;;41.10;24.20;;;;;;;-2.71;80.67;100871.11;105848;1257;73184;-77
2023/01/26 02:51:25;;;;;;;40.90;24.30;;;;;;;-2.75;80.54;100863.66;105821;1259;72667;-77
2023/01/26 02:53:53;;;;;;;38.70;23.00;;;;;;;-2.63;80.33;100857.84;105700;1253;60447;-77
2023/01/26 02:56:26;;;;;;;42.80;25.10;;;;;;;-2.56;80.32;100861.41;105891;1253;60546;-76
2023/01/26 02:58:55;;;;;;;39.60;25.10;;;;;;;-2.57;80.24;100858.29;107028;1253;73232;-78
2023/01/26 03:01:23;;;;;;;40.00;24.20;;;;;;;-2.59;80.29;100855.79;107841;1254;68256;-78
2023/01/26 03:03:51;;;;;;;41.20;25.70;;;;;;;-2.60;80.36;100854.77;107564;1254;72254;-78
2023/01/26 03:06:20;;;;;;;46.60;26.10;;;;;;;-2.57;80.21;100855.00;107460;1254;60485;-76
2023/01/26 03:08:48;;;;;;;44.00;25.10;;;;;;;-2.54;80.31;100849.70;107343;1254;60577;-77
2023/01/26 03:11:16;;;;;;;44.00;24.50;;;;;;;-2.52;80.07;100848.95;106970;1253;72908;-78
2023/01/26 03:13:44;;;;;;;46.50;24.80;;;;;;;-2.47;79.52;100846.67;106658;1254;70892;-78
2023/01/26 03:16:17;;;;;;;40.20;24.80;;;;;;;-2.37;79.28;100847.65;105859;1255;71374;-79
2023/01/26 03:27:27;;;;;;;52.40;27.00;;;;;;;-2.45;79.38;100843.98;105543;1254;70686;-78
2023/01/26 03:29:58;;;;;;;43.90;25.00;;;;;;;-2.49;79.43;100843.09;105703;1254;71909;-78
2023/01/26 03:32:29;;;;;;;47.10;27.00;;;;;;;-2.58;79.35;100839.27;105567;1254;60511;-76
2023/01/26 03:34:58;;;;;;;45.10;26.30;;;;;;;-2.66;79.56;100838.67;105606;1255;61038;-76
2023/01/26 03:37:26;;;;;;;45.40;23.70;;;;;;;-2.61;79.45;100836.06;105776;1259;74927;-76
2023/01/26 03:56:45;;;;;;;45.20;25.80;;;;;;;-2.65;80.04;100829.95;105867;1257;72941;-78
2023/01/26 03:59:15;;;;;;;47.80;26.70;;;;;;;-2.64;79.95;100835.33;106170;1253;60495;-79
2023/01/26 04:10:14;;;;;;;50.20;28.20;;;;;;;-2.49;79.66;100848.66;107635;1254;72873;-74
2023/01/26 04:12:49;;;;;;;54.80;31.10;;;;;;;-2.53;79.68;100848.27;105975;1254;60494;-77
2023/01/26 04:23:43;;;;;;;56.00;32.90;;;;;;;-2.61;80.01;100852.90;105877;1254;72171;-79
2023/01/26 04:26:12;;;;;;;50.00;31.00;;;;;;;-2.52;79.97;100852.04;105960;1254;60578;-77
2023/01/26 04:28:40;;;;;;;56.30;34.00;;;;;;;-2.55;80.01;100850.61;105853;1253;60492;-77
2023/01/26 04:31:08;;;;;;;63.30;37.10;;;;;;;-2.58;80.33;100850.50;105876;1258;73882;-78
2023/01/26 04:33:38;;;;;;;57.60;35.10;;;;;;;-2.58;80.53;100846.88;105894;1254;69411;-78
2023/01/26 04:36:07;;;;;;;59.40;35.10;;;;;;;-2.58;80.54;100850.17;106219;1256;72195;-79
2023/01/26 04:38:37;;;;;;;61.50;36.10;;;;;;;-2.59;80.44;100849.90;106391;1254;60749;-78
2023/01/26 04:41:06;;;;;;;59.30;34.20;;;;;;;-2.62;80.51;100852.73;106851;1253;60494;-77
2023/01/26 04:43:41;;;;;;;59.10;32.80;;;;;;;-2.51;80.35;100846.10;108076;1256;74780;-77
2023/01/26 04:46:10;;;;;;;54.70;32.00;;;;;;;-2.40;80.11;100844.31;105901;1254;69679;-77
2023/01/26 04:48:39;;;;;;;59.10;33.70;;;;;;;-2.45;80.17;100848.30;105633;1257;72491;-75
2023/01/26 04:51:12;;;;;;;54.20;31.80;;;;;;;-2.49;80.37;100845.35;105702;1256;60438;-77
2023/01/26 04:53:40;;;;;;;53.70;32.90;;;;;;;-2.52;80.38;100849.83;105774;1254;60505;-76
2023/01/26 04:56:21;;;;;;;56.50;32.90;;;;;;;-2.57;80.45;100848.25;105747;1256;74440;-76
2023/01/26 04:58:51;;;;;;;54.10;33.40;;;;;;;-2.60;80.38;100842.11;105700;1254;70994;-79
2023/01/26 05:01:19;;;;;;;54.40;31.90;;;;;;;-2.61;80.46;100832.09;106115;1254;71640;-78
2023/01/26 05:03:47;;;;;;;52.30;31.30;;;;;;;-2.51;80.17;100833.63;105653;1253;61082;-79
2023/01/26 07:23:32;;;;;;;52.70;32.90;;;;;;;-2.52;87.93;100833.05;103442;1284;612700;-68
2023/01/26 07:26:02;;;;;;;49.60;30.40;;;;;;;-2.05;86.80;100832.17;104709;1263;98369;-65
2023/01/26 07:28:30;;;;;;;49.20;30.80;;;;;;;-1.99;86.34;100831.08;104821;1263;60717;-65
2023/01/26 07:30:59;;;;;;;51.80;32.10;;;;;;;-2.01;86.34;100834.80;104825;1268;71044;-66
2023/01/26 07:33:28;;;;;;;59.70;34.80;;;;;;;-2.06;86.31;100833.77;104863;1265;68638;-64
2023/01/26 07:35:56;;;;;;;53.40;31.60;;;;;;;-2.11;86.34;100833.48;104836;1267;73052;-64
2023/01/26 07:38:25;;;;;;;48.30;29.10;;;;;;;-2.17;86.21;100826.24;104878;1266;61005;-64
2023/01/26 07:40:53;;;;;;;47.70;29.00;;;;;;;-2.08;85.89;100829.23;104886;1264;60498;-64
2023/01/26 07:43:21;;;;;;;57.00;32.00;;;;;;;-2.03;85.62;100827.95;104775;1268;72214;-64
2023/01/26 07:45:52;;;;;;;52.60;32.00;;;;;;;-2.07;85.68;100823.44;105417;1257;70574;-65
2023/01/26 07:48:22;;;;;;;57.50;33.20;;;;;;;-2.11;86.03;100822.36;105423;1257;72361;-66
2023/01/26 07:50:50;;;;;;;56.90;32.20;;;;;;;-2.18;85.86;100820.19;105514;1260;59552;-67
2023/01/26 07:53:18;;;;;;;54.70;31.40;;;;;;;-2.23;85.94;100815.20;105417;1257;60285;-66
2023/01/26 07:55:46;;;;;;;47.40;28.50;;;;;;;-2.13;85.92;100820.54;105576;1254;73301;-67
2023/01/26 07:58:14;;;;;;;53.50;32.20;;;;;;;-2.07;85.68;100820.84;105227;1257;70541;-66
2023/01/26 08:03:57;;;;;;;48.20;29.30;;;;;;;-2.11;86.09;100820.66;98545;1276;956981;-67
2023/01/26 08:06:25;;;;;;;50.30;31.50;;;;;;;-2.14;86.02;100822.83;103868;1278;60432;-67
2023/01/26 08:08:53;;;;;;;50.60;29.60;;;;;;;-2.15;85.98;100821.81;103690;1282;73283;-66
2023/01/26 11:03:40;;;;;;;18.80;13.60;;;;;;;1.04;68.65;100695.02;103776;1282;61090;-65
2023/01/26 11:19:10;;;;;;;17.90;14.10;;;;;;;3.04;64.34;100684.15;103274;1286;613514;-67
2023/01/26 11:21:54;;;;;;;17.70;13.70;;;;;;;3.51;62.40;100677.35;104526;1267;77369;-68
2023/01/26 11:24:27;;;;;;;16.20;12.40;;;;;;;3.12;61.30;100677.21;105167;1257;61240;-66
2023/01/26 11:27:33;;;;;;;18.80;13.10;;;;;;;2.68;61.89;100668.39;105153;1261;72937;-66
2023/01/26 11:30:26;;;;;;;17.40;11.70;;;;;;;2.28;62.09;100678.34;105324;1259;70826;-68
2023/01/26 11:33:25;;;;;;;17.40;12.50;;;;;;;1.82;62.07;100668.77;105277;1259;71952;-68
2023/01/26 11:36:00;;;;;;;15.70;10.90;;;;;;;1.36;63.47;100661.48;105269;1258;60818;-64
2023/01/26 11:38:34;;;;;;;15.80;11.90;;;;;;;1.06;64.58;100661.74;105558;1258;61326;-66
2023/01/26 11:41:21;;;;;;;19.60;14.20;;;;;;;0.82;65.62;100658.71;105532;1254;72283;-68
2023/01/26 11:44:13;;;;;;;20.40;13.80;;;;;;;0.65;66.38;100654.54;105511;1259;70369;-67
2023/01/26 11:46:54;;;;;;;28.20;17.00;;;;;;;0.56;67.12;100650.84;105687;1258;73817;-66
2023/01/26 11:49:46;;;;;;;21.90;14.80;;;;;;;0.44;67.61;100653.73;105790;1259;59698;-65
2023/01/26 11:52:28;;;;;;;20.90;14.60;;;;;;;0.29;67.99;100654.20;105330;1259;59766;-67
2023/01/26 11:55:02;;;;;;;26.10;16.90;;;;;;;0.13;68.36;100655.53;105387;1259;74257;-69
2023/01/26 11:57:41;;;;;;;24.30;14.60;;;;;;;-0.03;68.76;100654.11;105297;1254;70920;-67
2023/01/26 12:00:19;;;;;;;22.20;15.30;;;;;;;-0.20;69.00;100647.61;105502;1260;72856;-66
2023/01/26 12:03:00;;;;;;;23.80;15.70;;;;;;;-0.37;69.60;100643.42;105469;1257;59864;-66
2023/01/26 12:05:34;;;;;;;24.00;14.80;;;;;;;-0.48;70.01;100644.99;105593;1255;61538;-66
2023/01/26 12:08:04;;;;;;;;;;;;;;;-0.43;70.41;100643.20;105410;1259;72238;-67
2023/01/26 12:10:35;;;;;;;24.80;15.30;;;;;;;-0.37;70.45;100643.24;105495;1258;69389;-67
2023/01/26 12:13:05;;;;;;;23.30;15.20;;;;;;;-0.40;70.50;100630.85;105282;1260;71612;-66
2023/01/26 12:15:36;;;;;;;25.10;15.00;;;;;;;-0.44;70.40;100635.42;105384;1260;60561;-65
2023/01/26 12:18:07;;;;;;;22.30;13.60;;;;;;;-0.49;70.03;100627.84;105359;1258;59535;-65
2023/01/26 12:21:21;;;;;;;26.10;15.20;;;;;;;-0.51;70.34;100627.91;105503;1261;73674;-64
2023/01/26 12:23:57;;;;;;;26.10;16.30;;;;;;;-0.55;70.84;100621.20;104866;1267;70291;-67
2023/01/26 12:26:25;;;;;;;26.00;16.90;;;;;;;-0.60;71.23;100621.37;105142;1270;73395;-64
2023/01/26 12:29:06;;;;;;;30.90;18.40;;;;;;;-0.63;71.57;100621.52;105074;1259;59564;-67
2023/01/26 12:32:07;;;;;;;25.50;15.90;;;;;;;-0.65;71.55;100628.07;105327;1256;59657;-66
2023/01/26 12:34:35;;;;;;;29.30;17.50;;;;;;;-0.69;71.44;100624.78;105376;1260;73450;-66
2023/01/26 12:37:30;;;;;;;29.10;16.20;;;;;;;-0.72;71.74;100625.79;105411;1257;71524;-65
2023/01/26 12:40:32;;;;;;;25.60;15.20;;;;;;;-0.68;71.70;100623.71;105420;1258;71646;-66
2023/01/26 12:43:31;;;;;;;30.10;16.10;;;;;;;-0.53;71.55;100621.05;105387;1258;59785;-67
2023/01/26 12:45:59;;;;;;;29.40;17.20;;;;;;;-0.53;71.72;100620.19;105445;1257;59715;-66
2023/01/26 12:48:34;;;;;;;32.70;18.60;;;;;;;-0.54;71.58;100612.77;105533;1257;73106;-67
2023/01/26 12:51:10;;;;;;;30.70;17.10;;;;;;;-0.57;71.73;100612.03;105779;1260;68600;-66
2023/01/26 12:53:42;;;;;;;30.70;17.80;;;;;;;-0.55;71.79;100614.39;105796;1260;71715;-66
2023/01/26 12:56:39;;;;;;;30.30;18.40;;;;;;;-0.58;71.31;100616.61;105734;1258;60915;-64
2023/01/26 12:59:33;;;;;;;31.80;18.00;;;;;;;-0.67;71.38;100626.42;105897;1257;61188;-65
2023/01/26 13:02:24;;;;;;;29.90;17.60;;;;;;;-0.76;71.72;100628.82;106442;1260;72169;-66
2023/01/26 13:04:52;;;;;;;29.50;18.00;;;;;;;-0.85;71.95;100634.81;106516;1257;69202;-64
2023/01/26 13:07:30;;;;;;;33.40;19.40;;;;;;;-0.93;72.07;100619.88;106342;1260;71836;-65
2023/01/26 13:10:14;;;;;;;33.60;17.00;;;;;;;-0.93;72.59;100623.88;106070;1257;60551;-66
2023/01/26 13:13:00;;;;;;;30.00;17.20;;;;;;;-0.85;72.85;100613.38;106065;1256;60870;-66
2023/01/26 13:15:30;;;;;;;33.20;19.60;;;;;;;-0.87;73.08;100610.38;105979;1254;73066;-65
2023/01/26 13:18:00;;;;;;;31.10;19.80;;;;;;;-0.91;73.57;100609.02;105773;1260;69401;-63
2023/01/26 13:20:41;;;;;;;31.20;17.40;;;;;;;-0.94;73.72;100613.67;105784;1254;71659;-65
2023/01/26 13:23:36;;;;;;;31.20;17.50;;;;;;;-1.00;73.58;100621.94;105855;1260;59612;-66
2023/01/26 13:26:22;;;;;;;37.90;20.60;;;;;;;-1.08;73.83;100616.39;105804;1254;59635;-66
2023/01/26 13:28:51;;;;;;;33.50;19.10;;;;;;;-1.16;74.20;100611.91;105612;1254;71118;-65
2023/01/26 13:31:30;;;;;;;31.70;18.80;;;;;;;-1.13;74.65;100612.44;105671;1254;71190;-67
2023/01/26 13:34:01;;;;;;;33.60;20.10;;;;;;;-1.05;74.88;100606.50;105640;1254;73665;-66
2023/01/26 13:36:33;;;;;;;40.00;22.10;;;;;;;-1.07;74.94;100599.30;105415;1256;60362;-66
2023/01/26 13:39:12;;;;;;;35.10;19.30;;;;;;;-1.07;75.38;100606.09;105457;1255;60230;-68
2023/01/26 13:41:46;;;;;;;33.00;19.50;;;;;;;-1.08;75.37;100614.30;105379;1254;73116;-67
2023/01/26 13:44:17;;;;;;;34.80;18.70;;;;;;;-1.14;75.17;100614.61;105362;1256;70446;-67
2023/01/26 13:47:17;;;;;;;45.00;23.70;;;;;;;-1.22;75.56;100612.34;105424;1259;72796;-67
2023/01/26 13:49:49;;;;;;;42.80;20.80;;;;;;;-1.18;75.46;100609.91;105370;1254;61484;-67
2023/01/26 13:52:21;;;;;;;36.20;20.10;;;;;;;-1.10;75.46;100618.06;105363;1254;59635;-68
2023/01/26 13:54:51;;;;;;;38.20;21.30;;;;;;;-1.15;75.27;100614.48;105539;1254;73029;-66
2023/01/26 13:57:27;;;;;;;32.10;18.00;;;;;;;-1.21;75.59;100606.91;105293;1254;71274;-66
2023/01/26 14:00:00;;;;;;;38.10;19.60;;;;;;;-1.27;75.84;100607.19;105462;1256;71907;-67
2023/01/26 14:02:37;;;;;;;30.10;18.70;;;;;;;-1.31;76.13;100616.11;105533;1256;59637;-66
2023/01/26 14:05:07;;;;;;;39.20;19.80;;;;;;;-1.36;76.43;100613.35;105532;1256;60273;-68
2023/01/26 14:07:42;;;;;;;36.00;19.00;;;;;;;-1.35;76.76;100609.52;105556;1254;71908;-67
2023/01/26 14:10:15;;;;;;;33.20;18.40;;;;;;;-1.25;76.62;100602.61;105472;1256;70109;-66
2023/01/26 14:12:54;;;;;;;34.30;19.00;;;;;;;-1.23;76.96;100600.08;105553;1254;73562;-65
2023/01/26 14:15:28;;;;;;;37.00;19.70;;;;;;;-1.28;77.28;100601.49;105382;1254;59876;-65
2023/01/26 14:18:01;;;;;;;36.40;19.60;;;;;;;-1.33;77.60;100608.02;105400;1259;60091;-67
2023/01/26 14:20:30;;;;;;;34.80;19.60;;;;;;;-1.37;77.85;100597.41;105412;1259;73322;-67
2023/01/26 14:23:17;;;;;;;38.50;19.20;;;;;;;-1.39;78.01;100592.98;105507;1254;71550;-67
2023/01/26 14:26:17;;;;;;;35.00;19.10;;;;;;;-1.32;78.09;100592.64;105449;1254;73652;-66
2023/01/26 14:28:45;;;;;;;35.60;18.50;;;;;;;-1.22;78.27;100591.84;105503;1253;59811;-67
2023/01/26 14:31:24;;;;;;;31.90;18.80;;;;;;;-1.25;78.35;100588.50;105591;1257;61176;-67
2023/01/26 14:33:56;;;;;;;32.40;19.90;;;;;;;-1.29;78.52;100589.76;105603;1254;73098;-68
2023/01/26 14:36:27;;;;;;;33.20;19.70;;;;;;;-1.29;78.79;100589.24;105372;1254;71409;-66
2023/01/26 14:38:55;;;;;;;32.80;19.30;;;;;;;-1.29;79.09;100585.77;105283;1254;71649;-67
2023/01/26 14:41:28;;;;;;;32.00;17.90;;;;;;;-1.31;79.15;100582.35;105523;1258;59620;-67
2023/01/26 14:44:00;;;;;;;29.10;18.50;;;;;;;-1.23;79.12;100582.49;105454;1254;59701;-67
2023/01/26 14:46:53;;;;;;;31.10;18.20;;;;;;;-1.15;79.01;100576.92;105387;1254;71797;-65
2023/01/26 14:49:53;;;;;;;34.60;18.80;;;;;;;-1.17;79.34;100574.59;105488;1254;71653;-67
2023/01/26 14:52:23;;;;;;;33.80;19.00;;;;;;;-1.20;79.63;100579.77;105466;1254;73860;-67
2023/01/26 14:54:56;;;;;;;32.80;20.10;;;;;;;-1.22;79.90;100575.70;105620;1254;59623;-65
2023/01/26 14:57:26;;;;;;;39.00;20.60;;;;;;;-1.27;79.89;100574.55;105456;1260;59653;-66
2023/01/26 14:59:56;;;;;;;37.50;20.40;;;;;;;-1.30;80.15;100572.93;105544;1254;74044;-66
2023/01/26 15:02:41;;;;;;;33.60;19.30;;;;;;;-1.24;80.19;100572.46;105518;1258;68638;-65
2023/01/26 15:05:12;;;;;;;36.90;20.30;;;;;;;-1.12;80.07;100567.92;105587;1258;72042;-66
2023/01/26 15:07:42;;;;;;;40.50;22.30;;;;;;;-1.12;80.24;100562.52;105357;1257;59733;-65
2023/01/26 15:10:29;;;;;;;36.60;20.90;;;;;;;-1.13;80.44;100569.21;105174;1254;59753;-64
2023/01/26 15:13:10;;;;;;;40.30;21.70;;;;;;;-1.17;80.53;100567.42;105405;1259;73995;-68
2023/01/26 15:15:59;;;;;;;41.00;22.10;;;;;;;-1.24;80.42;100570.00;105222;1254;71243;-67
2023/01/26 15:18:32;;;;;;;40.60;21.90;;;;;;;-1.28;80.75;100564.34;105301;1254;72989;-67
2023/01/26 15:21:19;;;;;;;38.80;22.30;;;;;;;-1.20;80.62;100557.52;105548;1255;61039;-66
2023/01/26 15:23:51;;;;;;;36.50;20.10;;;;;;;-1.11;80.55;100560.20;105606;1259;61477;-65
2023/01/26 15:26:25;;;;;;;41.60;23.80;;;;;;;-1.12;80.89;100559.42;105528;1254;74250;-65
2023/01/26 15:28:54;;;;;;;43.90;24.30;;;;;;;-1.13;80.86;100553.89;105509;1254;71523;-67
2023/01/26 15:31:33;;;;;;;44.50;23.00;;;;;;;-1.13;81.06;100561.87;105565;1254;72143;-66
2023/01/26 15:34:03;;;;;;;47.20;26.00;;;;;;;-1.17;81.19;100572.67;105385;1261;59745;-68
2023/01/26 15:36:48;;;;;;;45.60;25.30;;;;;;;-1.23;81.09;100575.73;105391;1256;60540;-66
2023/01/26 15:39:20;;;;;;;48.30;26.20;;;;;;;-1.18;81.06;100570.47;105443;1254;72144;-67
2023/01/26 15:42:14;;;;;;;52.60;29.00;;;;;;;-1.15;81.17;100568.92;105435;1256;69842;-67
2023/01/26 15:44:42;;;;;;;57.00;28.90;;;;;;;-1.24;81.63;100577.15;105439;1258;73665;-66
2023/01/26 15:47:12;;;;;;;56.20;30.10;;;;;;;-1.34;81.80;100583.89;105336;1259;60652;-67
2023/01/26 15:49:41;;;;;;;48.40;25.60;;;;;;;-1.44;82.11;100576.02;105278;1256;61127;-67
2023/01/26 15:52:20;;;;;;;49.10;27.00;;;;;;;-1.41;82.28;100573.96;105436;1258;72918;-68
2023/01/26 15:54:50;;;;;;;54.90;29.20;;;;;;;-1.41;82.70;100577.59;105372;1254;69958;-66
2023/01/26 15:57:18;;;;;;;58.00;30.20;;;;;;;-1.49;82.87;100577.30;105242;1260;74027;-67
2023/01/26 15:59:47;;;;;;;55.00;30.30;;;;;;;-1.60;83.22;100576.38;105306;1254;60854;-66
2023/01/26 16:02:18;;;;;;;54.40;28.90;;;;;;;-1.65;83.62;100581.84;105283;1254;60518;-66
2023/01/26 16:04:46;;;;;;;57.80;31.10;;;;;;;-1.57;83.72;100577.14;105570;1254;72926;-65
2023/01/26 16:07:15;;;;;;;59.10;32.30;;;;;;;-1.50;83.91;100568.48;105413;1254;69690;-66
2023/01/26 16:09:44;;;;;;;63.20;33.20;;;;;;;-1.53;84.16;100572.45;105417;1259;74141;-67
2023/01/26 16:12:16;;;;;;;48.70;28.80;;;;;;;-1.58;84.45;100573.85;105308;1254;60483;-66
2023/01/26 16:15:01;;;;;;;53.10;29.50;;;;;;;-1.63;84.78;100573.73;105305;1257;60407;-65
2023/01/26 16:17:29;;;;;;;47.30;26.10;;;;;;;-1.58;84.87;100572.48;105503;1254;74050;-66
2023/01/26 16:19:59;;;;;;;52.90;28.60;;;;;;;-1.51;84.79;100572.88;105523;1254;71343;-66
2023/01/26 16:22:27;;;;;;;50.60;27.60;;;;;;;-1.55;85.09;100570.44;105553;1254;71923;-66
2023/01/26 16:24:55;;;;;;;45.70;26.30;;;;;;;-1.61;85.35;100573.86;105461;1254;60838;-64
2023/01/26 16:27:23;;;;;;;47.40;27.10;;;;;;;-1.67;85.48;100574.97;105487;1258;60413;-65
2023/01/26 16:29:52;;;;;;;43.90;25.60;;;;;;;-1.67;85.55;100572.55;105370;1254;74822;-63
2023/01/26 16:32:27;;;;;;;49.20;26.30;;;;;;;-1.56;85.55;100567.02;105420;1254;71585;-65
2023/01/26 16:34:55;;;;;;;48.50;28.50;;;;;;;-1.52;85.37;100564.92;105391;1254;73686;-66
2023/01/26 16:37:23;;;;;;;51.70;27.00;;;;;;;-1.55;85.52;100567.33;105366;1254;60530;-65
2023/01/26 16:39:51;;;;;;;46.40;25.50;;;;;;;-1.61;85.45;100573.13;105366;1254;61611;-64
2023/01/26 16:42:21;;;;;;;43.60;23.40;;;;;;;-1.65;85.47;100573.83;105404;1259;73066;-62
2023/01/26 16:44:49;;;;;;;39.50;22.20;;;;;;;-1.60;85.42;100574.47;105629;1259;70988;-63
2023/01/26 16:47:17;;;;;;;36.70;21.20;;;;;;;-1.51;85.21;100568.88;105379;1254;71612;-64
2023/01/26 16:49:49;;;;;;;41.10;22.20;;;;;;;-1.54;85.31;100568.46;105489;1256;60478;-65
2023/01/26 16:52:17;;;;;;;42.20;22.20;;;;;;;-1.58;85.45;100565.35;105366;1254;61505;-67
2023/01/26 16:54:47;;;;;;;39.00;21.80;;;;;;;-1.62;85.37;100567.27;105383;1256;75120;-65
2023/01/26 16:57:15;;;;;;;36.50;21.70;;;;;;;-1.55;85.42;100569.04;105391;1256;70630;-65
2023/01/26 16:59:44;;;;;;;35.50;21.10;;;;;;;-1.48;85.18;100582.98;105455;1256;72669;-65
2023/01/26 17:02:22;;;;;;;34.70;19.10;;;;;;;-1.52;85.31;100587.48;105416;1254;60772;-66
2023/01/26 17:04:51;;;;;;;35.30;21.40;;;;;;;-1.57;85.00;100579.55;105304;1256;61226;-64
2023/01/26 17:07:19;;;;;;;36.60;20.70;;;;;;;-1.60;85.26;100580.03;105337;1261;73262;-66
2023/01/26 17:09:47;;;;;;;36.90;20.70;;;;;;;-1.53;85.23;100573.30;105318;1256;71750;-65
2023/01/26 17:12:15;;;;;;;39.10;23.60;;;;;;;-1.55;85.36;100575.15;105431;1256;73707;-65
2023/01/26 17:14:43;;;;;;;38.10;22.40;;;;;;;-1.63;85.63;100574.44;105388;1254;60547;-66
2023/01/26 17:17:11;;;;;;;37.60;22.60;;;;;;;-1.67;85.74;100573.58;105424;1256;60537;-65
2023/01/26 17:19:39;;;;;;;34.30;19.70;;;;;;;-1.69;86.01;100575.40;105440;1259;73179;-65
2023/01/26 17:22:07;;;;;;;34.20;20.00;;;;;;;-1.62;85.91;100573.86;105182;1254;71188;-66
2023/01/26 17:24:36;;;;;;;38.60;21.90;;;;;;;-1.57;85.82;100574.34;105245;1260;72036;-66
2023/01/26 17:27:04;;;;;;;35.10;21.90;;;;;;;-1.62;86.15;100572.34;105318;1254;60777;-64
2023/01/26 17:29:32;;;;;;;40.60;23.20;;;;;;;-1.69;86.11;100568.48;105312;1254;60476;-65
2023/01/26 17:32:01;;;;;;;37.10;20.10;;;;;;;-1.70;86.32;100573.92;105263;1254;74924;-65
2023/01/26 17:34:29;;;;;;;33.90;20.20;;;;;;;-1.60;86.14;100578.64;105478;1258;69113;-65
2023/01/26 17:36:58;;;;;;;39.80;22.80;;;;;;;-1.58;86.01;100576.66;105477;1256;73637;-65
2023/01/26 17:39:27;;;;;;;41.80;23.10;;;;;;;-1.64;86.21;100574.81;105415;1254;60758;-65
2023/01/26 17:41:55;;;;;;;38.80;21.20;;;;;;;-1.69;86.51;100577.31;105305;1254;61249;-66